sensor_id;sensor_type;location;lat;lon;timestamp;P1;durP1;ratioP1;P2;durP2;ratioP2
45650;SDS011;31365;48.858;8.530;2023-09-07T00:00:41;4.05;;;2.58;;
45650;SDS011;31365;48.858;8.530;2023-09-07T00:03:11;3.47;;;2.28;;
45650;SDS011;31365;48.858;8.530;2023-09-07T00:05:42;2.40;;;2.20;;
45650;SDS011;31365;48.858;8.530;2023-09-07T00:08:10;3.17;;;2.88;;
45650;SDS011;31365;48.858;8.530;2023-09-07T00:10:39;3.63;;;2.28;;
45650;SDS011;31365;48.858;8.530;2023-09-07T00:13:08;2.60;;;2.38;;
45650;SDS011;31365;48.858;8.530;2023-09-07T00:15:37;3.83;;;2.25;;
45650;SDS011;31365;48.858;8.530;2023-09-07T00:18:06;3.47;;;2.42;;
45650;SDS011;31365;48.858;8.530;2023-09-07T00:20:36;4.78;;;2.50;;
45650;SDS011;31365;48.858;8.530;2023-09-07T00:23:05;3.38;;;2.33;;
45650;SDS011;31365;48.858;8.530;2023-09-07T00:25:33;5.18;;;2.17;;
45650;SDS011;31365;48.858;8.530;2023-09-07T00:28:02;3.33;;;2.38;;
45650;SDS011;31365;48.858;8.530;2023-09-07T00:30:31;2.55;;;2.17;;
45650;SDS011;31365;48.858;8.530;2023-09-07T00:32:59;4.18;;;2.33;;
45650;SDS011;31365;48.858;8.530;2023-09-07T00:35:27;3.13;;;2.80;;
45650;SDS011;31365;48.858;8.530;2023-09-07T00:37:56;4.90;;;2.38;;
45650;SDS011;31365;48.858;8.530;2023-09-07T00:40:47;3.15;;;2.45;;
45650;SDS011;31365;48.858;8.530;2023-09-07T00:43:15;3.60;;;2.13;;
45650;SDS011;31365;48.858;8.530;2023-09-07T00:45:45;2.97;;;2.67;;
45650;SDS011;31365;48.858;8.530;2023-09-07T00:48:14;3.25;;;2.40;;
45650;SDS011;31365;48.858;8.530;2023-09-07T00:50:44;2.50;;;2.30;;
45650;SDS011;31365;48.858;8.530;2023-09-07T00:53:14;4.95;;;2.28;;
45650;SDS011;31365;48.858;8.530;2023-09-07T00:55:44;2.72;;;2.30;;
45650;SDS011;31365;48.858;8.530;2023-09-07T00:58:13;3.85;;;2.67;;
45650;SDS011;31365;48.858;8.530;2023-09-07T01:00:42;2.80;;;2.60;;
45650;SDS011;31365;48.858;8.530;2023-09-07T01:03:12;2.47;;;2.20;;
45650;SDS011;31365;48.858;8.530;2023-09-07T01:05:43;3.67;;;2.50;;
45650;SDS011;31365;48.858;8.530;2023-09-07T01:08:22;2.80;;;2.10;;
45650;SDS011;31365;48.858;8.530;2023-09-07T01:10:56;2.40;;;2.20;;
45650;SDS011;31365;48.858;8.530;2023-09-07T01:13:24;3.05;;;2.60;;
45650;SDS011;31365;48.858;8.530;2023-09-07T01:15:53;2.42;;;2.22;;
45650;SDS011;31365;48.858;8.530;2023-09-07T01:18:21;3.88;;;2.55;;
45650;SDS011;31365;48.858;8.530;2023-09-07T01:20:51;3.65;;;2.50;;
45650;SDS011;31365;48.858;8.530;2023-09-07T01:23:23;2.67;;;2.45;;
45650;SDS011;31365;48.858;8.530;2023-09-07T01:25:52;2.45;;;2.25;;
45650;SDS011;31365;48.858;8.530;2023-09-07T01:28:22;2.50;;;2.30;;
45650;SDS011;31365;48.858;8.530;2023-09-07T01:30:51;3.20;;;2.15;;
45650;SDS011;31365;48.858;8.530;2023-09-07T01:33:19;2.55;;;2.35;;
45650;SDS011;31365;48.858;8.530;2023-09-07T01:35:48;2.90;;;2.47;;
45650;SDS011;31365;48.858;8.530;2023-09-07T01:38:16;2.78;;;2.40;;
45650;SDS011;31365;48.858;8.530;2023-09-07T01:40:46;4.40;;;2.28;;
45650;SDS011;31365;48.858;8.530;2023-09-07T01:43:14;2.60;;;2.40;;
45650;SDS011;31365;48.858;8.530;2023-09-07T01:45:43;2.60;;;2.40;;
45650;SDS011;31365;48.858;8.530;2023-09-07T01:48:11;2.42;;;2.22;;
45650;SDS011;31365;48.858;8.530;2023-09-07T01:50:42;3.35;;;2.50;;
45650;SDS011;31365;48.858;8.530;2023-09-07T01:53:10;2.60;;;2.40;;
45650;SDS011;31365;48.858;8.530;2023-09-07T01:55:39;2.50;;;2.20;;
45650;SDS011;31365;48.858;8.530;2023-09-07T01:58:09;3.85;;;2.47;;
45650;SDS011;31365;48.858;8.530;2023-09-07T02:00:37;4.13;;;2.20;;
45650;SDS011;31365;48.858;8.530;2023-09-07T02:03:06;3.95;;;2.50;;
45650;SDS011;31365;48.858;8.530;2023-09-07T02:05:34;2.33;;;2.10;;
45650;SDS011;31365;48.858;8.530;2023-09-07T02:08:03;2.47;;;2.28;;
45650;SDS011;31365;48.858;8.530;2023-09-07T02:10:33;2.40;;;2.20;;
45650;SDS011;31365;48.858;8.530;2023-09-07T02:13:01;3.83;;;2.20;;
45650;SDS011;31365;48.858;8.530;2023-09-07T02:15:31;2.25;;;1.85;;
45650;SDS011;31365;48.858;8.530;2023-09-07T02:18:02;2.88;;;2.38;;
45650;SDS011;31365;48.858;8.530;2023-09-07T02:20:32;2.60;;;2.40;;
45650;SDS011;31365;48.858;8.530;2023-09-07T02:23:00;2.13;;;1.92;;
45650;SDS011;31365;48.858;8.530;2023-09-07T02:25:29;2.40;;;2.20;;
45650;SDS011;31365;48.858;8.530;2023-09-07T02:27:58;2.60;;;2.40;;
45650;SDS011;31365;48.858;8.530;2023-09-07T02:30:26;2.20;;;2.03;;
45650;SDS011;31365;48.858;8.530;2023-09-07T02:32:56;2.90;;;2.10;;
45650;SDS011;31365;48.858;8.530;2023-09-07T02:35:26;2.80;;;2.60;;
45650;SDS011;31365;48.858;8.530;2023-09-07T02:37:55;2.20;;;2.00;;
45650;SDS011;31365;48.858;8.530;2023-09-07T02:40:23;3.05;;;2.08;;
45650;SDS011;31365;48.858;8.530;2023-09-07T02:42:52;3.38;;;2.25;;
45650;SDS011;31365;48.858;8.530;2023-09-07T02:45:20;2.60;;;2.40;;
45650;SDS011;31365;48.858;8.530;2023-09-07T02:47:49;3.55;;;2.22;;
45650;SDS011;31365;48.858;8.530;2023-09-07T02:50:20;4.88;;;2.58;;
45650;SDS011;31365;48.858;8.530;2023-09-07T02:52:49;2.83;;;2.30;;
45650;SDS011;31365;48.858;8.530;2023-09-07T02:55:17;2.65;;;2.30;;
45650;SDS011;31365;48.858;8.530;2023-09-07T02:57:45;2.78;;;2.38;;
45650;SDS011;31365;48.858;8.530;2023-09-07T03:00:14;2.30;;;2.10;;
45650;SDS011;31365;48.858;8.530;2023-09-07T03:02:44;2.70;;;2.22;;
45650;SDS011;31365;48.858;8.530;2023-09-07T03:05:12;2.95;;;2.00;;
45650;SDS011;31365;48.858;8.530;2023-09-07T03:07:44;4.20;;;2.47;;
45650;SDS011;31365;48.858;8.530;2023-09-07T03:10:15;2.58;;;2.20;;
45650;SDS011;31365;48.858;8.530;2023-09-07T03:12:44;4.55;;;2.15;;
45650;SDS011;31365;48.858;8.530;2023-09-07T03:15:12;6.28;;;2.55;;
45650;SDS011;31365;48.858;8.530;2023-09-07T03:17:41;3.78;;;2.55;;
45650;SDS011;31365;48.858;8.530;2023-09-07T03:20:11;2.70;;;2.50;;
45650;SDS011;31365;48.858;8.530;2023-09-07T03:22:45;2.97;;;2.42;;
45650;SDS011;31365;48.858;8.530;2023-09-07T03:25:14;2.25;;;2.15;;
45650;SDS011;31365;48.858;8.530;2023-09-07T03:27:43;2.67;;;2.45;;
45650;SDS011;31365;48.858;8.530;2023-09-07T03:30:12;3.35;;;2.10;;
45650;SDS011;31365;48.858;8.530;2023-09-07T03:32:41;3.05;;;2.60;;
45650;SDS011;31365;48.858;8.530;2023-09-07T03:35:10;2.30;;;2.10;;
45650;SDS011;31365;48.858;8.530;2023-09-07T03:37:38;3.58;;;2.58;;
45650;SDS011;31365;48.858;8.530;2023-09-07T03:40:08;2.58;;;2.38;;
45650;SDS011;31365;48.858;8.530;2023-09-07T03:42:38;2.88;;;2.60;;
45650;SDS011;31365;48.858;8.530;2023-09-07T03:45:08;3.17;;;2.30;;
45650;SDS011;31365;48.858;8.530;2023-09-07T03:47:37;2.70;;;2.50;;
45650;SDS011;31365;48.858;8.530;2023-09-07T03:50:06;3.83;;;2.53;;
45650;SDS011;31365;48.858;8.530;2023-09-07T03:52:36;3.58;;;2.10;;
45650;SDS011;31365;48.858;8.530;2023-09-07T03:55:06;3.90;;;2.35;;
45650;SDS011;31365;48.858;8.530;2023-09-07T03:57:37;6.38;;;2.70;;
45650;SDS011;31365;48.858;8.530;2023-09-07T04:00:06;5.82;;;2.75;;
45650;SDS011;31365;48.858;8.530;2023-09-07T04:02:42;2.40;;;2.20;;
45650;SDS011;31365;48.858;8.530;2023-09-07T04:05:12;5.72;;;3.28;;
45650;SDS011;31365;48.858;8.530;2023-09-07T04:07:41;8.55;;;3.00;;
45650;SDS011;31365;48.858;8.530;2023-09-07T04:10:11;3.22;;;2.53;;
45650;SDS011;31365;48.858;8.530;2023-09-07T04:12:39;3.60;;;2.60;;
45650;SDS011;31365;48.858;8.530;2023-09-07T04:15:08;3.53;;;2.80;;
45650;SDS011;31365;48.858;8.530;2023-09-07T04:17:40;2.95;;;2.75;;
45650;SDS011;31365;48.858;8.530;2023-09-07T04:20:08;2.80;;;2.60;;
45650;SDS011;31365;48.858;8.530;2023-09-07T04:22:38;2.72;;;2.53;;
45650;SDS011;31365;48.858;8.530;2023-09-07T04:25:08;2.70;;;2.50;;
45650;SDS011;31365;48.858;8.530;2023-09-07T04:27:37;2.83;;;2.50;;
45650;SDS011;31365;48.858;8.530;2023-09-07T04:30:07;2.67;;;2.35;;
45650;SDS011;31365;48.858;8.530;2023-09-07T04:32:36;2.58;;;2.38;;
45650;SDS011;31365;48.858;8.530;2023-09-07T04:35:06;3.60;;;2.38;;
45650;SDS011;31365;48.858;8.530;2023-09-07T04:37:35;4.10;;;2.45;;
45650;SDS011;31365;48.858;8.530;2023-09-07T04:40:05;4.85;;;2.47;;
45650;SDS011;31365;48.858;8.530;2023-09-07T04:42:34;3.58;;;2.60;;
45650;SDS011;31365;48.858;8.530;2023-09-07T04:45:04;4.13;;;2.58;;
45650;SDS011;31365;48.858;8.530;2023-09-07T04:47:33;3.33;;;3.00;;
45650;SDS011;31365;48.858;8.530;2023-09-07T04:50:04;2.45;;;2.20;;
45650;SDS011;31365;48.858;8.530;2023-09-07T04:52:34;3.28;;;2.47;;
45650;SDS011;31365;48.858;8.530;2023-09-07T04:55:03;4.05;;;2.55;;
45650;SDS011;31365;48.858;8.530;2023-09-07T04:57:33;4.15;;;2.70;;
45650;SDS011;31365;48.858;8.530;2023-09-07T05:00:06;3.42;;;3.03;;
45650;SDS011;31365;48.858;8.530;2023-09-07T05:02:36;3.15;;;2.67;;
45650;SDS011;31365;48.858;8.530;2023-09-07T05:05:08;3.30;;;2.63;;
45650;SDS011;31365;48.858;8.530;2023-09-07T05:07:37;4.85;;;3.17;;
45650;SDS011;31365;48.858;8.530;2023-09-07T05:10:07;3.15;;;2.85;;
45650;SDS011;31365;48.858;8.530;2023-09-07T05:12:39;2.83;;;2.50;;
45650;SDS011;31365;48.858;8.530;2023-09-07T05:15:09;2.70;;;2.50;;
45650;SDS011;31365;48.858;8.530;2023-09-07T05:17:38;2.67;;;2.47;;
45650;SDS011;31365;48.858;8.530;2023-09-07T05:20:07;4.90;;;2.97;;
45650;SDS011;31365;48.858;8.530;2023-09-07T05:22:37;3.72;;;3.30;;
45650;SDS011;31365;48.858;8.530;2023-09-07T05:25:07;9.20;;;3.30;;
45650;SDS011;31365;48.858;8.530;2023-09-07T05:27:37;3.58;;;3.28;;
45650;SDS011;31365;48.858;8.530;2023-09-07T05:30:06;4.78;;;3.05;;
45650;SDS011;31365;48.858;8.530;2023-09-07T05:32:36;3.70;;;3.40;;
45650;SDS011;31365;48.858;8.530;2023-09-07T05:35:05;3.92;;;3.42;;
45650;SDS011;31365;48.858;8.530;2023-09-07T05:37:34;3.10;;;2.80;;
45650;SDS011;31365;48.858;8.530;2023-09-07T05:40:02;4.88;;;2.97;;
45650;SDS011;31365;48.858;8.530;2023-09-07T05:42:31;3.58;;;2.88;;
45650;SDS011;31365;48.858;8.530;2023-09-07T05:44:59;4.83;;;2.90;;
45650;SDS011;31365;48.858;8.530;2023-09-07T05:47:27;5.60;;;2.63;;
45650;SDS011;31365;48.858;8.530;2023-09-07T05:49:57;3.10;;;2.50;;
45650;SDS011;31365;48.858;8.530;2023-09-07T05:52:26;3.40;;;3.10;;
45650;SDS011;31365;48.858;8.530;2023-09-07T05:54:55;3.65;;;2.53;;
45650;SDS011;31365;48.858;8.530;2023-09-07T05:57:23;2.90;;;2.50;;
45650;SDS011;31365;48.858;8.530;2023-09-07T05:59:52;3.67;;;3.30;;
45650;SDS011;31365;48.858;8.530;2023-09-07T06:02:20;3.03;;;2.83;;
45650;SDS011;31365;48.858;8.530;2023-09-07T06:04:48;2.78;;;2.50;;
45650;SDS011;31365;48.858;8.530;2023-09-07T06:07:18;2.83;;;2.63;;
45650;SDS011;31365;48.858;8.530;2023-09-07T06:09:46;4.00;;;2.90;;
45650;SDS011;31365;48.858;8.530;2023-09-07T06:12:14;3.20;;;2.90;;
45650;SDS011;31365;48.858;8.530;2023-09-07T06:14:43;3.22;;;2.60;;
45650;SDS011;31365;48.858;8.530;2023-09-07T06:17:12;3.00;;;2.80;;
45650;SDS011;31365;48.858;8.530;2023-09-07T06:19:40;4.38;;;3.20;;
45650;SDS011;31365;48.858;8.530;2023-09-07T06:22:09;3.63;;;2.90;;
45650;SDS011;31365;48.858;8.530;2023-09-07T06:24:39;3.63;;;3.10;;
45650;SDS011;31365;48.858;8.530;2023-09-07T06:27:07;2.97;;;2.78;;
45650;SDS011;31365;48.858;8.530;2023-09-07T06:29:36;3.33;;;2.72;;
45650;SDS011;31365;48.858;8.530;2023-09-07T06:32:05;3.22;;;2.92;;
45650;SDS011;31365;48.858;8.530;2023-09-07T06:34:33;3.88;;;2.92;;
45650;SDS011;31365;48.858;8.530;2023-09-07T06:37:02;3.08;;;2.80;;
45650;SDS011;31365;48.858;8.530;2023-09-07T06:39:32;4.88;;;2.90;;
45650;SDS011;31365;48.858;8.530;2023-09-07T06:42:02;2.92;;;2.63;;
45650;SDS011;31365;48.858;8.530;2023-09-07T06:44:38;2.70;;;2.50;;
45650;SDS011;31365;48.858;8.530;2023-09-07T06:47:07;2.58;;;2.38;;
45650;SDS011;31365;48.858;8.530;2023-09-07T06:49:37;3.58;;;3.03;;
45650;SDS011;31365;48.858;8.530;2023-09-07T06:52:06;5.30;;;3.08;;
45650;SDS011;31365;48.858;8.530;2023-09-07T06:54:37;3.78;;;2.88;;
45650;SDS011;31365;48.858;8.530;2023-09-07T06:57:07;3.22;;;2.60;;
45650;SDS011;31365;48.858;8.530;2023-09-07T06:59:36;3.20;;;2.90;;
45650;SDS011;31365;48.858;8.530;2023-09-07T07:02:04;3.22;;;2.97;;
45650;SDS011;31365;48.858;8.530;2023-09-07T07:04:33;3.25;;;2.83;;
45650;SDS011;31365;48.858;8.530;2023-09-07T07:07:02;2.97;;;2.67;;
45650;SDS011;31365;48.858;8.530;2023-09-07T07:09:32;3.47;;;2.50;;
45650;SDS011;31365;48.858;8.530;2023-09-07T07:12:00;4.47;;;2.67;;
45650;SDS011;31365;48.858;8.530;2023-09-07T07:14:30;3.28;;;3.03;;
45650;SDS011;31365;48.858;8.530;2023-09-07T07:16:59;3.40;;;3.10;;
45650;SDS011;31365;48.858;8.530;2023-09-07T07:19:28;3.08;;;2.83;;
45650;SDS011;31365;48.858;8.530;2023-09-07T07:21:59;5.38;;;3.42;;
45650;SDS011;31365;48.858;8.530;2023-09-07T07:24:28;3.42;;;3.03;;
45650;SDS011;31365;48.858;8.530;2023-09-07T07:26:57;3.50;;;3.17;;
45650;SDS011;31365;48.858;8.530;2023-09-07T07:29:28;3.38;;;3.08;;
45650;SDS011;31365;48.858;8.530;2023-09-07T07:32:01;3.38;;;2.72;;
45650;SDS011;31365;48.858;8.530;2023-09-07T07:34:31;4.80;;;3.17;;
45650;SDS011;31365;48.858;8.530;2023-09-07T07:37:00;3.30;;;2.90;;
45650;SDS011;31365;48.858;8.530;2023-09-07T07:39:29;3.45;;;2.75;;
45650;SDS011;31365;48.858;8.530;2023-09-07T07:41:58;2.90;;;2.70;;
45650;SDS011;31365;48.858;8.530;2023-09-07T07:44:26;3.03;;;2.72;;
45650;SDS011;31365;48.858;8.530;2023-09-07T07:46:55;3.33;;;2.85;;
45650;SDS011;31365;48.858;8.530;2023-09-07T07:49:25;2.95;;;2.65;;
45650;SDS011;31365;48.858;8.530;2023-09-07T07:51:54;5.13;;;2.67;;
45650;SDS011;31365;48.858;8.530;2023-09-07T07:54:24;3.22;;;2.88;;
45650;SDS011;31365;48.858;8.530;2023-09-07T07:56:54;3.25;;;2.97;;
45650;SDS011;31365;48.858;8.530;2023-09-07T07:59:22;3.13;;;2.83;;
45650;SDS011;31365;48.858;8.530;2023-09-07T08:01:51;3.30;;;2.90;;
45650;SDS011;31365;48.858;8.530;2023-09-07T08:04:20;4.80;;;2.72;;
45650;SDS011;31365;48.858;8.530;2023-09-07T08:06:50;3.25;;;2.90;;
45650;SDS011;31365;48.858;8.530;2023-09-07T08:09:21;3.95;;;3.03;;
45650;SDS011;31365;48.858;8.530;2023-09-07T08:11:49;4.05;;;2.90;;
45650;SDS011;31365;48.858;8.530;2023-09-07T08:14:18;5.25;;;2.65;;
45650;SDS011;31365;48.858;8.530;2023-09-07T08:16:47;4.70;;;2.80;;
45650;SDS011;31365;48.858;8.530;2023-09-07T08:19:15;5.20;;;2.90;;
45650;SDS011;31365;48.858;8.530;2023-09-07T08:21:43;3.28;;;2.92;;
45650;SDS011;31365;48.858;8.530;2023-09-07T08:24:15;4.13;;;3.03;;
45650;SDS011;31365;48.858;8.530;2023-09-07T08:26:44;3.03;;;2.80;;
45650;SDS011;31365;48.858;8.530;2023-09-07T08:29:17;2.92;;;2.55;;
45650;SDS011;31365;48.858;8.530;2023-09-07T08:31:46;3.47;;;3.15;;
45650;SDS011;31365;48.858;8.530;2023-09-07T08:34:15;3.75;;;3.00;;
45650;SDS011;31365;48.858;8.530;2023-09-07T08:36:46;3.33;;;3.00;;
45650;SDS011;31365;48.858;8.530;2023-09-07T08:39:17;4.55;;;2.92;;
45650;SDS011;31365;48.858;8.530;2023-09-07T08:41:48;3.95;;;3.22;;
45650;SDS011;31365;48.858;8.530;2023-09-07T08:44:28;3.47;;;2.85;;
45650;SDS011;31365;48.858;8.530;2023-09-07T08:47:00;3.58;;;2.92;;
45650;SDS011;31365;48.858;8.530;2023-09-07T08:49:31;3.85;;;2.63;;
45650;SDS011;31365;48.858;8.530;2023-09-07T08:52:01;3.70;;;3.40;;
45650;SDS011;31365;48.858;8.530;2023-09-07T08:54:33;3.15;;;2.95;;
45650;SDS011;31365;48.858;8.530;2023-09-07T08:57:04;4.18;;;2.92;;
45650;SDS011;31365;48.858;8.530;2023-09-07T08:59:34;3.22;;;3.00;;
45650;SDS011;31365;48.858;8.530;2023-09-07T09:02:03;2.97;;;2.78;;
45650;SDS011;31365;48.858;8.530;2023-09-07T09:04:37;3.53;;;2.75;;
45650;SDS011;31365;48.858;8.530;2023-09-07T09:07:06;6.18;;;3.05;;
45650;SDS011;31365;48.858;8.530;2023-09-07T09:09:37;3.88;;;3.47;;
45650;SDS011;31365;48.858;8.530;2023-09-07T09:12:08;3.75;;;3.25;;
45650;SDS011;31365;48.858;8.530;2023-09-07T09:14:42;4.72;;;3.15;;
45650;SDS011;31365;48.858;8.530;2023-09-07T09:17:11;4.20;;;3.40;;
45650;SDS011;31365;48.858;8.530;2023-09-07T09:19:41;3.92;;;2.70;;
45650;SDS011;31365;48.858;8.530;2023-09-07T09:22:10;4.40;;;3.20;;
45650;SDS011;31365;48.858;8.530;2023-09-07T09:24:40;3.33;;;3.13;;
45650;SDS011;31365;48.858;8.530;2023-09-07T09:27:09;3.13;;;2.83;;
45650;SDS011;31365;48.858;8.530;2023-09-07T09:29:37;3.67;;;3.40;;
45650;SDS011;31365;48.858;8.530;2023-09-07T09:32:06;4.03;;;3.42;;
45650;SDS011;31365;48.858;8.530;2023-09-07T09:34:35;3.80;;;3.28;;
45650;SDS011;31365;48.858;8.530;2023-09-07T09:37:05;3.95;;;3.55;;
45650;SDS011;31365;48.858;8.530;2023-09-07T09:39:43;3.88;;;3.50;;
45650;SDS011;31365;48.858;8.530;2023-09-07T09:42:17;4.25;;;3.25;;
45650;SDS011;31365;48.858;8.530;2023-09-07T09:44:45;3.45;;;3.17;;
45650;SDS011;31365;48.858;8.530;2023-09-07T09:47:20;3.65;;;3.35;;
45650;SDS011;31365;48.858;8.530;2023-09-07T09:49:49;4.63;;;3.13;;
45650;SDS011;31365;48.858;8.530;2023-09-07T09:52:19;3.08;;;2.88;;
45650;SDS011;31365;48.858;8.530;2023-09-07T09:54:50;3.35;;;2.90;;
45650;SDS011;31365;48.858;8.530;2023-09-07T09:57:19;3.67;;;3.35;;
45650;SDS011;31365;48.858;8.530;2023-09-07T09:59:48;5.85;;;3.80;;
45650;SDS011;31365;48.858;8.530;2023-09-07T10:02:18;5.47;;;3.28;;
45650;SDS011;31365;48.858;8.530;2023-09-07T10:04:47;4.30;;;3.50;;
45650;SDS011;31365;48.858;8.530;2023-09-07T10:07:18;4.43;;;3.95;;
45650;SDS011;31365;48.858;8.530;2023-09-07T10:09:47;4.75;;;4.20;;
45650;SDS011;31365;48.858;8.530;2023-09-07T10:12:16;3.67;;;3.40;;
45650;SDS011;31365;48.858;8.530;2023-09-07T10:14:45;6.28;;;3.53;;
45650;SDS011;31365;48.858;8.530;2023-09-07T10:17:21;3.97;;;3.67;;
45650;SDS011;31365;48.858;8.530;2023-09-07T10:20:01;3.50;;;3.20;;
45650;SDS011;31365;48.858;8.530;2023-09-07T10:22:32;4.57;;;3.60;;
45650;SDS011;31365;48.858;8.530;2023-09-07T10:25:00;3.55;;;3.17;;
45650;SDS011;31365;48.858;8.530;2023-09-07T10:27:37;3.22;;;2.92;;
45650;SDS011;31365;48.858;8.530;2023-09-07T10:30:09;4.40;;;4.00;;
45650;SDS011;31365;48.858;8.530;2023-09-07T10:32:40;4.85;;;3.63;;
45650;SDS011;31365;48.858;8.530;2023-09-07T10:35:12;3.92;;;3.42;;
45650;SDS011;31365;48.858;8.530;2023-09-07T10:37:45;3.78;;;3.47;;
45650;SDS011;31365;48.858;8.530;2023-09-07T10:40:18;3.47;;;3.28;;
45650;SDS011;31365;48.858;8.530;2023-09-07T10:42:50;4.10;;;3.25;;
45650;SDS011;31365;48.858;8.530;2023-09-07T10:45:29;4.60;;;3.47;;
45650;SDS011;31365;48.858;8.530;2023-09-07T10:47:57;4.28;;;3.45;;
45650;SDS011;31365;48.858;8.530;2023-09-07T10:50:26;3.92;;;3.55;;
45650;SDS011;31365;48.858;8.530;2023-09-07T10:52:55;3.53;;;3.22;;
45650;SDS011;31365;48.858;8.530;2023-09-07T10:55:23;3.83;;;3.53;;
45650;SDS011;31365;48.858;8.530;2023-09-07T10:57:56;3.42;;;3.13;;
45650;SDS011;31365;48.858;8.530;2023-09-07T11:00:24;6.85;;;3.50;;
45650;SDS011;31365;48.858;8.530;2023-09-07T11:02:53;5.47;;;3.03;;
45650;SDS011;31365;48.858;8.530;2023-09-07T11:05:21;4.00;;;3.33;;
45650;SDS011;31365;48.858;8.530;2023-09-07T11:07:52;3.20;;;2.90;;
45650;SDS011;31365;48.858;8.530;2023-09-07T11:10:21;5.05;;;3.40;;
45650;SDS011;31365;48.858;8.530;2023-09-07T11:12:50;4.88;;;3.40;;
45650;SDS011;31365;48.858;8.530;2023-09-07T11:15:20;3.72;;;3.30;;
45650;SDS011;31365;48.858;8.530;2023-09-07T11:17:49;3.78;;;3.30;;
45650;SDS011;31365;48.858;8.530;2023-09-07T11:20:20;4.10;;;3.25;;
45650;SDS011;31365;48.858;8.530;2023-09-07T11:22:50;4.00;;;3.60;;
45650;SDS011;31365;48.858;8.530;2023-09-07T11:25:34;4.15;;;3.50;;
45650;SDS011;31365;48.858;8.530;2023-09-07T11:28:03;4.65;;;3.45;;
45650;SDS011;31365;48.858;8.530;2023-09-07T11:30:36;3.97;;;3.67;;
45650;SDS011;31365;48.858;8.530;2023-09-07T11:33:04;5.40;;;3.67;;
45650;SDS011;31365;48.858;8.530;2023-09-07T11:35:35;3.38;;;2.92;;
45650;SDS011;31365;48.858;8.530;2023-09-07T11:38:06;5.13;;;3.10;;
45650;SDS011;31365;48.858;8.530;2023-09-07T11:40:38;3.50;;;3.20;;
45650;SDS011;31365;48.858;8.530;2023-09-07T11:43:10;3.33;;;3.03;;
45650;SDS011;31365;48.858;8.530;2023-09-07T11:45:40;4.28;;;3.28;;
45650;SDS011;31365;48.858;8.530;2023-09-07T11:48:11;3.83;;;3.53;;
45650;SDS011;31365;48.858;8.530;2023-09-07T11:50:39;5.22;;;3.97;;
45650;SDS011;31365;48.858;8.530;2023-09-07T11:53:08;4.53;;;3.10;;
45650;SDS011;31365;48.858;8.530;2023-09-07T11:55:36;5.57;;;3.60;;
45650;SDS011;31365;48.858;8.530;2023-09-07T11:58:06;5.80;;;3.40;;
45650;SDS011;31365;48.858;8.530;2023-09-07T12:00:34;4.13;;;3.72;;
45650;SDS011;31365;48.858;8.530;2023-09-07T12:03:05;4.18;;;3.17;;
45650;SDS011;31365;48.858;8.530;2023-09-07T12:05:33;4.30;;;3.20;;
45650;SDS011;31365;48.858;8.530;2023-09-07T12:08:02;3.88;;;3.05;;
45650;SDS011;31365;48.858;8.530;2023-09-07T12:10:32;5.43;;;3.22;;
45650;SDS011;31365;48.858;8.530;2023-09-07T12:13:01;3.45;;;3.15;;
45650;SDS011;31365;48.858;8.530;2023-09-07T12:15:29;4.38;;;3.33;;
45650;SDS011;31365;48.858;8.530;2023-09-07T12:17:58;6.18;;;3.33;;
45650;SDS011;31365;48.858;8.530;2023-09-07T12:20:28;3.17;;;2.85;;
45650;SDS011;31365;48.858;8.530;2023-09-07T12:22:56;3.30;;;3.10;;
45650;SDS011;31365;48.858;8.530;2023-09-07T12:25:24;3.60;;;3.08;;
45650;SDS011;31365;48.858;8.530;2023-09-07T12:27:53;5.82;;;3.13;;
45650;SDS011;31365;48.858;8.530;2023-09-07T12:30:21;5.03;;;2.97;;
45650;SDS011;31365;48.858;8.530;2023-09-07T12:32:51;3.08;;;2.88;;
45650;SDS011;31365;48.858;8.530;2023-09-07T12:35:20;3.42;;;3.13;;
45650;SDS011;31365;48.858;8.530;2023-09-07T12:37:51;3.58;;;2.63;;
45650;SDS011;31365;48.858;8.530;2023-09-07T12:40:20;4.32;;;3.20;;
45650;SDS011;31365;48.858;8.530;2023-09-07T12:42:49;6.28;;;4.20;;
45650;SDS011;31365;48.858;8.530;2023-09-07T12:45:18;4.82;;;3.10;;
45650;SDS011;31365;48.858;8.530;2023-09-07T12:47:47;3.13;;;2.60;;
45650;SDS011;31365;48.858;8.530;2023-09-07T12:50:15;4.18;;;2.83;;
45650;SDS011;31365;48.858;8.530;2023-09-07T12:52:43;6.22;;;3.90;;
45650;SDS011;31365;48.858;8.530;2023-09-07T12:55:13;4.35;;;3.03;;
45650;SDS011;31365;48.858;8.530;2023-09-07T12:57:43;3.05;;;2.70;;
45650;SDS011;31365;48.858;8.530;2023-09-07T13:00:12;4.72;;;3.10;;
45650;SDS011;31365;48.858;8.530;2023-09-07T13:02:41;4.28;;;2.65;;
45650;SDS011;31365;48.858;8.530;2023-09-07T13:05:10;4.47;;;3.05;;
45650;SDS011;31365;48.858;8.530;2023-09-07T13:07:38;3.10;;;2.78;;
45650;SDS011;31365;48.858;8.530;2023-09-07T13:10:07;4.13;;;3.00;;
45650;SDS011;31365;48.858;8.530;2023-09-07T13:12:38;2.92;;;2.63;;
45650;SDS011;31365;48.858;8.530;2023-09-07T13:15:08;3.67;;;2.90;;
45650;SDS011;31365;48.858;8.530;2023-09-07T13:17:37;5.28;;;2.80;;
45650;SDS011;31365;48.858;8.530;2023-09-07T13:20:06;3.78;;;2.70;;
45650;SDS011;31365;48.858;8.530;2023-09-07T14:39:40;6.15;;;2.80;;
45650;SDS011;31365;48.858;8.530;2023-09-07T14:42:14;5.05;;;2.97;;
45650;SDS011;31365;48.858;8.530;2023-09-07T14:44:44;4.30;;;2.65;;
45650;SDS011;31365;48.858;8.530;2023-09-07T14:54:40;4.90;;;2.55;;
45650;SDS011;31365;48.858;8.530;2023-09-07T14:59:40;3.55;;;3.22;;
45650;SDS011;31365;48.858;8.530;2023-09-07T15:02:08;3.45;;;3.03;;
45650;SDS011;31365;48.858;8.530;2023-09-07T15:12:03;6.00;;;3.20;;
45650;SDS011;31365;48.858;8.530;2023-09-07T15:17:01;5.28;;;3.08;;
45650;SDS011;31365;48.858;8.530;2023-09-07T15:19:30;3.72;;;3.05;;
45650;SDS011;31365;48.858;8.530;2023-09-07T15:22:00;3.47;;;3.17;;
45650;SDS011;31365;48.858;8.530;2023-09-07T15:24:28;4.20;;;3.33;;
45650;SDS011;31365;48.858;8.530;2023-09-07T15:26:58;4.05;;;3.17;;
45650;SDS011;31365;48.858;8.530;2023-09-07T15:29:36;8.07;;;3.65;;
45650;SDS011;31365;48.858;8.530;2023-09-07T15:32:05;6.03;;;3.25;;
45650;SDS011;31365;48.858;8.530;2023-09-07T15:34:33;6.18;;;3.40;;
45650;SDS011;31365;48.858;8.530;2023-09-07T15:37:02;6.45;;;3.25;;
45650;SDS011;31365;48.858;8.530;2023-09-07T15:39:31;7.32;;;3.65;;
45650;SDS011;31365;48.858;8.530;2023-09-07T15:42:00;7.25;;;3.17;;
45650;SDS011;31365;48.858;8.530;2023-09-07T15:44:29;3.53;;;2.92;;
45650;SDS011;31365;48.858;8.530;2023-09-07T15:46:58;3.83;;;3.20;;
45650;SDS011;31365;48.858;8.530;2023-09-07T15:49:27;7.80;;;4.13;;
45650;SDS011;31365;48.858;8.530;2023-09-07T15:51:55;4.72;;;3.42;;
45650;SDS011;31365;48.858;8.530;2023-09-07T15:54:24;6.40;;;2.95;;
45650;SDS011;31365;48.858;8.530;2023-09-07T15:56:53;8.20;;;4.13;;
45650;SDS011;31365;48.858;8.530;2023-09-07T15:59:31;3.50;;;3.20;;
45650;SDS011;31365;48.858;8.530;2023-09-07T16:02:02;3.72;;;3.25;;
45650;SDS011;31365;48.858;8.530;2023-09-07T16:04:33;3.20;;;2.88;;
45650;SDS011;31365;48.858;8.530;2023-09-07T16:07:02;4.03;;;3.08;;
45650;SDS011;31365;48.858;8.530;2023-09-07T16:09:31;5.93;;;3.20;;
45650;SDS011;31365;48.858;8.530;2023-09-07T16:11:59;3.08;;;2.88;;
45650;SDS011;31365;48.858;8.530;2023-09-07T16:14:28;3.95;;;3.47;;
45650;SDS011;31365;48.858;8.530;2023-09-07T16:16:58;3.50;;;3.20;;
45650;SDS011;31365;48.858;8.530;2023-09-07T16:19:26;3.47;;;3.17;;
45650;SDS011;31365;48.858;8.530;2023-09-07T16:21:58;3.55;;;3.25;;
45650;SDS011;31365;48.858;8.530;2023-09-07T16:24:53;6.13;;;3.50;;
45650;SDS011;31365;48.858;8.530;2023-09-07T16:27:22;3.70;;;3.15;;
45650;SDS011;31365;48.858;8.530;2023-09-07T16:29:50;4.63;;;3.40;;
45650;SDS011;31365;48.858;8.530;2023-09-07T16:32:20;8.93;;;2.97;;
45650;SDS011;31365;48.858;8.530;2023-09-07T16:34:48;5.30;;;2.90;;
45650;SDS011;31365;48.858;8.530;2023-09-07T16:37:16;4.10;;;3.22;;
45650;SDS011;31365;48.858;8.530;2023-09-07T16:39:45;3.60;;;3.30;;